createdAt,value
2018-06-21T00:01:25.946Z,1.6
2018-06-21T00:04:26.124Z,1.9
2018-06-21T00:07:26.046Z,1.8
2018-06-21T00:10:25.970Z,1.5
2018-06-21T00:13:26.051Z,1.6
2018-06-21T00:16:25.972Z,1.6
2018-06-21T00:19:26.000Z,1.8
2018-06-21T00:22:25.883Z,1.8
2018-06-21T00:25:26.180Z,1.7
2018-06-21T00:28:25.917Z,1.7
2018-06-21T00:31:25.842Z,2.2
2018-06-21T00:34:25.906Z,1.6
2018-06-21T00:37:25.898Z,2.3
2018-06-21T00:40:25.813Z,1.9
2018-06-21T00:43:25.988Z,1.8
2018-06-21T00:46:25.999Z,1.8
2018-06-21T00:49:25.944Z,1.7
2018-06-21T00:52:25.948Z,1.7
2018-06-21T00:55:25.795Z,2.7
2018-06-21T00:58:25.804Z,2.1
2018-06-21T01:01:26.129Z,1.6
2018-06-21T01:04:25.875Z,1.7
2018-06-21T01:07:25.966Z,1.5
2018-06-21T01:10:25.879Z,1.6
2018-06-21T01:13:25.986Z,1.6
2018-06-21T01:16:25.947Z,1.6
2018-06-21T01:19:26.045Z,1.7
2018-06-21T01:22:25.779Z,1.7
2018-06-21T01:25:26.472Z,2.4
2018-06-21T01:28:25.968Z,1.7
2018-06-21T01:31:26.024Z,1.7
2018-06-21T01:34:25.785Z,1.6
2018-06-21T01:37:25.891Z,1.7
2018-06-21T01:40:25.903Z,1.6
2018-06-21T01:43:25.839Z,1.8
2018-06-21T01:46:25.942Z,1.7
2018-06-21T01:49:25.933Z,1.6
2018-06-21T01:52:25.781Z,1.7
2018-06-21T01:55:25.971Z,1.7
2018-06-21T01:58:26.080Z,2
2018-06-21T02:01:25.940Z,1.7
2018-06-21T02:04:26.214Z,1.7
2018-06-21T02:07:25.827Z,1.7
2018-06-21T02:10:25.906Z,1.9
2018-06-21T02:13:25.959Z,1.6
2018-06-21T02:16:25.821Z,1.7
2018-06-21T02:19:57.448Z,1.8
2018-06-21T02:22:25.711Z,1.8
2018-06-21T02:25:25.798Z,1.6
2018-06-21T02:28:25.902Z,1.7
2018-06-21T02:31:25.776Z,1.8
2018-06-21T02:34:27.229Z,1.6
2018-06-21T02:37:25.827Z,1.8
2018-06-21T02:40:25.805Z,1.7
2018-06-21T02:43:25.819Z,2.3
2018-06-21T02:46:25.781Z,1.6
2018-06-21T02:49:25.813Z,1.6
2018-06-21T02:52:25.992Z,1.7
2018-06-21T02:55:26.064Z,1.7
2018-06-21T02:58:25.916Z,1.6
2018-06-21T03:01:26.005Z,1.7
2018-06-21T03:04:25.848Z,1.7
2018-06-21T03:07:25.888Z,2.1
2018-06-21T03:10:25.967Z,1.6
2018-06-21T03:13:25.919Z,1.7
2018-06-21T03:16:25.938Z,1.7
2018-06-21T03:19:25.938Z,2.4
2018-06-21T03:22:25.795Z,1.7
2018-06-21T03:25:26.041Z,1.8
2018-06-21T03:28:25.870Z,1.7
2018-06-21T03:31:25.817Z,1.7
2018-06-21T03:34:25.958Z,1.8
2018-06-21T03:37:25.922Z,1.8
2018-06-21T03:40:25.928Z,1.7
2018-06-21T03:43:25.818Z,1.7
2018-06-21T03:46:26.023Z,1.7
2018-06-21T03:49:25.945Z,1.7
2018-06-21T03:52:25.973Z,1.8
2018-06-21T03:55:25.768Z,1.8
2018-06-21T03:58:25.867Z,1.7
2018-06-21T04:01:26.043Z,1.7
2018-06-21T04:04:25.742Z,1.8
2018-06-21T04:07:25.982Z,2
2018-06-21T04:10:25.866Z,2.5
2018-06-21T04:13:25.944Z,1.8
2018-06-21T04:16:25.815Z,1.8
2018-06-21T04:19:25.834Z,1.8
2018-06-21T04:22:25.914Z,2.1
2018-06-21T04:25:26.000Z,1.8
2018-06-21T04:28:25.750Z,1.8
2018-06-21T04:31:25.925Z,1.8
2018-06-21T04:34:25.841Z,1.7
2018-06-21T04:37:26.033Z,1.8
2018-06-21T04:40:25.872Z,1.8
2018-06-21T04:43:25.616Z,3.5
2018-06-21T04:46:25.988Z,2.2
2018-06-21T04:49:26.079Z,2.2
2018-06-21T04:52:26.052Z,1.9
2018-06-21T04:55:26.005Z,1.7
2018-06-21T04:58:25.866Z,2
2018-06-21T05:01:25.788Z,2.2
2018-06-21T05:04:26.013Z,1.8
2018-06-21T05:07:25.893Z,2.1
2018-06-21T05:10:25.829Z,2.2
2018-06-21T05:13:25.851Z,1.7
2018-06-21T05:16:25.767Z,1.9
2018-06-21T05:19:25.938Z,1.7
2018-06-21T05:22:25.849Z,1.6
2018-06-21T05:25:25.736Z,2.1
2018-06-21T05:28:25.862Z,2
2018-06-21T05:31:25.933Z,3.4
2018-06-21T05:34:25.907Z,3.7
2018-06-21T05:37:26.305Z,3
2018-06-21T05:40:25.896Z,4.5
2018-06-21T05:43:25.941Z,2.2
2018-06-21T05:46:25.872Z,3.3
2018-06-21T05:49:25.914Z,3.5
2018-06-21T05:52:25.972Z,2.6
2018-06-21T05:55:25.855Z,2.4
2018-06-21T05:58:25.800Z,2.1
2018-06-21T06:01:25.895Z,2.7
2018-06-21T06:04:25.870Z,3.9
2018-06-21T06:07:26.524Z,2.7
2018-06-21T06:10:26.005Z,1.9
2018-06-21T06:13:25.898Z,1.8
2018-06-21T06:16:25.835Z,2.2
2018-06-21T06:19:25.878Z,1.9
2018-06-21T06:22:25.777Z,3.4
2018-06-21T06:25:25.675Z,2.7
2018-06-21T06:28:25.758Z,2.4
2018-06-21T06:31:25.878Z,2
2018-06-21T06:34:25.884Z,1.9
2018-06-21T06:37:25.986Z,1.9
2018-06-21T06:40:26.338Z,1.8
2018-06-21T06:43:25.818Z,1.9
2018-06-21T06:46:25.990Z,1.8
2018-06-21T06:49:35.851Z,2.7
2018-06-21T06:52:25.810Z,1.8
2018-06-21T06:55:25.890Z,2
2018-06-21T06:58:25.822Z,1.9
2018-06-21T07:01:25.913Z,1.9
2018-06-21T07:04:26.037Z,2.5
2018-06-21T07:07:25.837Z,2.3
2018-06-21T07:10:25.792Z,2.1
2018-06-21T07:13:25.816Z,1.8
2018-06-21T07:16:25.867Z,1.7
2018-06-21T07:19:25.785Z,1.8
2018-06-21T07:22:26.067Z,2.4
2018-06-21T07:25:25.749Z,2
2018-06-21T07:28:26.202Z,2.2
2018-06-21T07:31:25.914Z,1.7
2018-06-21T07:34:25.913Z,1.7
2018-06-21T07:37:25.815Z,1.6
2018-06-21T07:40:25.771Z,2.1
2018-06-21T07:43:25.902Z,1.8
2018-06-21T07:46:25.869Z,1.7
2018-06-21T07:49:25.798Z,1.8
2018-06-21T07:52:25.927Z,1.9
2018-06-21T07:55:25.988Z,2.1
2018-06-21T07:58:26.082Z,2.2
2018-06-21T08:01:26.668Z,2
2018-06-21T08:04:25.992Z,3.3
2018-06-21T08:07:25.760Z,2.1
2018-06-21T08:10:26.092Z,1.7
2018-06-21T08:13:25.956Z,1.9
2018-06-21T08:16:25.904Z,1.8
2018-06-21T08:19:25.892Z,1.8
2018-06-21T08:22:25.645Z,1.9
2018-06-21T08:25:25.865Z,2.4
2018-06-21T08:28:25.801Z,1.9
2018-06-21T08:31:25.834Z,1.8
2018-06-21T08:34:25.970Z,1.9
2018-06-21T08:37:25.891Z,1.8
2018-06-21T08:40:25.734Z,1.9
2018-06-21T08:43:25.677Z,1.8
2018-06-21T08:46:25.778Z,1.9
2018-06-21T08:49:25.656Z,1.9
2018-06-21T08:52:25.892Z,1.8
2018-06-21T08:55:25.805Z,2.3
2018-06-21T08:58:26.532Z,1.7
2018-06-21T09:01:25.768Z,2.4
2018-06-21T09:04:25.851Z,1.9
2018-06-21T09:07:35.861Z,1.9
2018-06-21T09:10:25.840Z,1.8
2018-06-21T09:13:25.726Z,1.9
2018-06-21T09:16:25.830Z,1.7
2018-06-21T09:19:25.944Z,1.8
2018-06-21T09:22:25.763Z,1.9
2018-06-21T09:25:25.702Z,1.8
2018-06-21T09:28:25.971Z,1.9
2018-06-21T09:31:26.028Z,1.8
2018-06-21T09:34:25.912Z,1.8
2018-06-21T09:37:25.823Z,1.9
2018-06-21T09:40:25.866Z,1.8
2018-06-21T09:43:25.692Z,1.8
2018-06-21T09:46:34.708Z,1.9
2018-06-21T09:49:25.692Z,1.9
2018-06-21T09:52:26.355Z,1.9
2018-06-21T09:55:25.742Z,1.7
2018-06-21T09:58:25.811Z,2
2018-06-21T10:01:25.671Z,2.2
2018-06-21T10:04:26.177Z,1.8
2018-06-21T10:07:26.049Z,1.7
2018-06-21T10:10:26.205Z,2
2018-06-21T10:13:26.007Z,1.9
2018-06-21T10:16:25.902Z,2
2018-06-21T10:19:25.931Z,1.8
2018-06-21T10:22:25.863Z,1.8
2018-06-21T10:25:25.756Z,1.9
2018-06-21T10:28:25.778Z,1.9
2018-06-21T10:31:25.783Z,1.8
2018-06-21T10:34:25.845Z,1.8
2018-06-21T10:37:25.997Z,2
2018-06-21T10:40:26.000Z,1.9
2018-06-21T10:43:26.015Z,2.2
2018-06-21T10:46:25.935Z,1.8
2018-06-21T10:49:25.800Z,1.8
2018-06-21T10:52:25.630Z,1.9
2018-06-21T10:55:25.897Z,1.9
2018-06-21T10:58:25.811Z,1.8
2018-06-21T11:01:25.693Z,1.8
2018-06-21T11:04:25.866Z,1.8
2018-06-21T11:07:25.821Z,1.9
2018-06-21T11:10:25.672Z,1.9
2018-06-21T11:13:25.811Z,1.9
2018-06-21T11:16:25.854Z,1.8
2018-06-21T11:19:25.987Z,1.8
2018-06-21T11:22:25.845Z,1.8
2018-06-21T11:25:25.766Z,1.8
2018-06-21T11:28:25.916Z,2.1
2018-06-21T11:31:25.878Z,2
2018-06-21T11:34:25.878Z,1.8
2018-06-21T11:37:25.892Z,1.8
2018-06-21T11:40:25.914Z,1.9
2018-06-21T11:43:25.713Z,1.8
2018-06-21T11:46:25.862Z,1.9
2018-06-21T11:49:25.782Z,1.9
2018-06-21T11:52:25.906Z,1.9
2018-06-21T11:55:25.869Z,1.9
2018-06-21T11:58:25.786Z,1.9
2018-06-21T12:01:25.850Z,1.8
2018-06-21T12:04:25.853Z,1.8
2018-06-21T12:07:25.874Z,1.8
2018-06-21T12:10:25.833Z,1.8
2018-06-21T12:13:25.892Z,1.9
2018-06-21T12:16:25.835Z,1.9
2018-06-21T12:19:25.754Z,1.9
2018-06-21T12:22:25.879Z,1.8
2018-06-21T12:25:25.740Z,1.8
2018-06-21T12:28:25.860Z,1.8
2018-06-21T12:31:25.940Z,1.8
2018-06-21T12:34:25.683Z,1.9
2018-06-21T12:37:25.772Z,1.9
2018-06-21T12:40:25.615Z,1.9
2018-06-21T12:43:25.865Z,2.2
2018-06-21T12:46:25.944Z,1.8
2018-06-21T12:49:25.802Z,1.9
2018-06-21T12:52:26.587Z,1.9
2018-06-21T12:55:25.835Z,2.1
2018-06-21T12:58:25.927Z,1.9
2018-06-21T13:01:25.646Z,1.8
2018-06-21T13:04:25.829Z,3.8
2018-06-21T13:07:25.831Z,2
2018-06-21T13:10:25.771Z,1.7
2018-06-21T13:13:25.763Z,1.8
2018-06-21T13:16:25.666Z,1.9
2018-06-21T13:19:25.866Z,2
2018-06-21T13:22:25.816Z,2
2018-06-21T13:25:25.679Z,1.9
2018-06-21T13:28:25.810Z,1.9
2018-06-21T13:31:25.799Z,1.8
2018-06-21T13:34:25.992Z,2
2018-06-21T13:37:25.988Z,1.8
2018-06-21T13:40:25.991Z,1.9
2018-06-21T13:43:26.022Z,1.8
2018-06-21T13:46:26.026Z,2.2
2018-06-21T13:49:25.890Z,2.2
2018-06-21T13:52:25.955Z,2.8
2018-06-21T13:55:26.001Z,1.9
2018-06-21T13:58:26.240Z,1.8
2018-06-21T14:01:25.631Z,1.9
2018-06-21T14:04:26.048Z,3.2
2018-06-21T14:07:26.642Z,2
2018-06-21T14:10:26.136Z,2
2018-06-21T14:13:25.819Z,2.8
2018-06-21T14:16:26.171Z,3.3
2018-06-21T14:19:26.201Z,2
2018-06-21T14:22:25.552Z,2.5
2018-06-21T14:25:25.651Z,2
2018-06-21T14:28:25.754Z,2.2
2018-06-21T14:31:25.657Z,5
2018-06-21T14:34:25.749Z,5.3
2018-06-21T14:37:25.791Z,4.2
2018-06-21T14:40:25.669Z,3.5
2018-06-21T14:43:25.740Z,4.2
2018-06-21T14:46:25.777Z,4.7
2018-06-21T14:49:25.534Z,4.5
2018-06-21T14:52:25.860Z,3.6
2018-06-21T14:55:25.828Z,3.6
2018-06-21T14:58:25.707Z,2.8
2018-06-21T15:01:25.713Z,3.7
2018-06-21T15:04:25.940Z,3.1
2018-06-21T15:07:25.562Z,2.3
2018-06-21T15:10:25.876Z,3.4
2018-06-21T15:13:25.844Z,3.6
2018-06-21T15:16:25.811Z,3.4
2018-06-21T15:19:25.732Z,3.4
2018-06-21T15:22:25.761Z,2.8
2018-06-21T15:25:25.663Z,3.3
2018-06-21T15:28:25.872Z,3
2018-06-21T15:31:25.703Z,4.7
2018-06-21T15:34:36.281Z,3.7
2018-06-21T15:37:25.776Z,4
2018-06-21T15:40:25.844Z,3.9
2018-06-21T15:43:25.767Z,4.2
2018-06-21T15:46:25.835Z,2.9
2018-06-21T15:49:25.786Z,4.7
2018-06-21T15:52:25.904Z,4.8
2018-06-21T15:55:25.841Z,3.4
2018-06-21T15:58:25.923Z,3.2
2018-06-21T16:01:26.159Z,4
2018-06-21T16:04:25.920Z,2.7
2018-06-21T16:07:26.229Z,4.3
2018-06-21T16:10:25.800Z,5.5
2018-06-21T16:13:25.978Z,2.8
2018-06-21T16:16:43.262Z,2.9
2018-06-21T16:19:25.897Z,4.6
2018-06-21T16:22:25.953Z,2.5
2018-06-21T16:25:25.967Z,4.8
2018-06-21T16:28:25.897Z,2.7
2018-06-21T16:31:26.026Z,3.4
2018-06-21T16:34:25.827Z,3
2018-06-21T16:37:25.563Z,3.7
2018-06-21T16:40:25.923Z,2.7
2018-06-21T16:43:25.603Z,3.1
2018-06-21T16:46:25.678Z,2.7
2018-06-21T16:49:25.988Z,2.5
2018-06-21T16:52:25.727Z,2.5
2018-06-21T16:55:25.538Z,2.7
2018-06-21T16:58:26.159Z,3.9
2018-06-21T17:01:26.066Z,3
2018-06-21T17:04:35.692Z,2.5
2018-06-21T17:07:25.736Z,2.3
2018-06-21T17:10:26.880Z,3
2018-06-21T17:13:26.206Z,2.4
2018-06-21T17:16:25.775Z,2.9
2018-06-21T17:19:25.811Z,2.9
2018-06-21T17:22:26.348Z,3.1
2018-06-21T17:25:25.735Z,3.4
2018-06-21T17:28:25.830Z,4.7
2018-06-21T17:31:25.639Z,5.8
2018-06-21T17:34:25.674Z,4.1
2018-06-21T17:37:26.192Z,5
2018-06-21T17:40:25.807Z,13.3
2018-06-21T17:43:25.883Z,7.8
2018-06-21T17:46:25.900Z,8.8
2018-06-21T17:49:25.842Z,7.3
2018-06-21T17:52:26.013Z,11.7
2018-06-21T17:55:25.728Z,6.9
2018-06-21T17:58:25.765Z,4.8
2018-06-21T18:01:25.740Z,7.2
2018-06-21T18:04:25.851Z,14.1
2018-06-21T18:07:25.708Z,8.6
2018-06-21T18:10:25.687Z,6.2
2018-06-21T18:13:25.787Z,7.2
2018-06-21T18:16:25.772Z,9.5
2018-06-21T18:19:25.731Z,8.6
2018-06-21T18:22:25.847Z,8.3
2018-06-21T18:25:26.000Z,8.6
2018-06-21T18:28:25.776Z,8
2018-06-21T18:31:25.734Z,5.3
2018-06-21T18:34:25.825Z,5.7
2018-06-21T18:37:25.788Z,7.1
2018-06-21T18:40:25.803Z,4.8
2018-06-21T18:43:25.909Z,8.6
2018-06-21T18:46:25.871Z,4.3
2018-06-21T18:49:25.843Z,6.8
2018-06-21T18:52:25.839Z,9.7
2018-06-21T18:55:25.944Z,6.1
2018-06-21T18:58:25.845Z,5
2018-06-21T19:01:25.985Z,6.3
2018-06-21T19:04:26.045Z,6.9
2018-06-21T19:07:25.955Z,8.3
2018-06-21T19:10:26.368Z,7.6
2018-06-21T19:13:26.013Z,8.8
2018-06-21T19:16:26.025Z,8.3
2018-06-21T19:19:26.644Z,8
2018-06-21T19:22:25.868Z,7.9
2018-06-21T19:25:25.618Z,7.9
2018-06-21T19:28:26.108Z,5.7
2018-06-21T19:31:26.006Z,5.8
2018-06-21T19:34:26.182Z,6.1
2018-06-21T19:37:25.644Z,5
2018-06-21T19:40:25.568Z,6.3
2018-06-21T19:43:25.632Z,4.3
2018-06-21T19:46:25.648Z,6.2
2018-06-21T19:49:25.589Z,4.4
2018-06-21T19:52:26.159Z,3.1
2018-06-21T19:55:26.251Z,4.4
2018-06-21T19:58:25.575Z,10.2
2018-06-21T20:01:25.791Z,5.6
2018-06-21T20:04:25.612Z,10.1
2018-06-21T20:07:26.505Z,5.7
2018-06-21T20:10:25.693Z,7.2
2018-06-21T20:13:25.582Z,6.7
2018-06-21T20:16:25.739Z,5.3
2018-06-21T20:19:25.655Z,4.6
2018-06-21T20:22:25.748Z,3.9
2018-06-21T20:25:25.585Z,3.6
2018-06-21T20:28:27.184Z,3.5
2018-06-21T20:31:25.891Z,5.8
2018-06-21T20:34:25.849Z,5.4
2018-06-21T20:37:25.613Z,3.4
2018-06-21T20:40:25.531Z,2.7
2018-06-21T20:43:25.642Z,4.2
2018-06-21T20:46:25.880Z,4.2
2018-06-21T20:49:25.750Z,3.9
2018-06-21T20:52:25.810Z,2
2018-06-21T20:55:25.766Z,3.3
2018-06-21T20:58:25.503Z,2.5
2018-06-21T21:01:25.489Z,4
2018-06-21T21:04:25.505Z,3
2018-06-21T21:07:25.671Z,4.5
2018-06-21T21:10:25.818Z,3.2
2018-06-21T21:13:25.460Z,2.7
2018-06-21T21:16:25.625Z,3.3
2018-06-21T21:19:25.625Z,2.8
2018-06-21T21:22:25.823Z,3.8
2018-06-21T21:25:25.582Z,3.5
2018-06-21T21:28:26.316Z,3.6
2018-06-21T21:31:25.680Z,2.5
2018-06-21T21:34:25.710Z,2.4
2018-06-21T21:37:25.600Z,2.8
2018-06-21T21:40:25.734Z,1.9
2018-06-21T21:43:25.829Z,3.6
2018-06-21T21:46:25.578Z,1.8
2018-06-21T21:49:25.659Z,2.1
2018-06-21T21:52:25.755Z,2.4
2018-06-21T21:55:25.820Z,2
2018-06-21T21:58:25.625Z,2.5
2018-06-21T22:01:25.633Z,2.7
2018-06-21T22:04:25.956Z,3.3
2018-06-21T22:07:25.791Z,4.4
2018-06-21T22:10:25.587Z,1.8
2018-06-21T22:13:25.615Z,2.4
2018-06-21T22:16:25.544Z,2.5
2018-06-21T22:19:25.846Z,2.6
2018-06-21T22:22:25.517Z,2.4
2018-06-21T22:25:25.966Z,3.2
2018-06-21T22:28:25.867Z,2.5
2018-06-21T22:31:25.623Z,2.5
2018-06-21T22:34:25.498Z,2.5
2018-06-21T22:37:25.575Z,2.2
2018-06-21T22:40:25.643Z,2.7
2018-06-21T22:43:35.584Z,2
2018-06-21T22:46:25.510Z,2
2018-06-21T22:49:25.624Z,1.7
2018-06-21T22:52:25.572Z,1.9
2018-06-21T22:55:25.542Z,1.6
2018-06-21T22:58:25.831Z,1.9
2018-06-21T23:01:25.993Z,2.7
2018-06-21T23:04:25.597Z,1.7
2018-06-21T23:07:25.695Z,2.1
2018-06-21T23:10:25.830Z,2.7
2018-06-21T23:13:25.480Z,2.3
2018-06-21T23:16:25.500Z,2.1
2018-06-21T23:19:25.669Z,2
2018-06-21T23:22:25.554Z,2.8
2018-06-21T23:25:25.583Z,1.7
2018-06-21T23:28:25.581Z,1.5
2018-06-21T23:31:25.760Z,1.6
2018-06-21T23:34:25.559Z,1.5
2018-06-21T23:37:25.811Z,3.2
2018-06-21T23:40:25.478Z,2.8
2018-06-21T23:43:25.653Z,2.6
2018-06-21T23:46:25.530Z,1.9
2018-06-21T23:49:25.742Z,1.8
2018-06-21T23:52:25.467Z,1.9
2018-06-21T23:55:25.552Z,1.8
2018-06-21T23:58:25.432Z,1.6
